createdAt,value
2022-09-30T00:00:12.164Z,1.77
2022-09-30T00:05:15.666Z,2.10
2022-09-30T00:10:20.521Z,1.90
2022-09-30T00:15:24.216Z,1.40
2022-09-30T00:20:27.636Z,1.50
2022-09-30T00:25:32.566Z,1.30
2022-09-30T00:30:35.992Z,2.03
2022-09-30T00:35:39.430Z,1.80
2022-09-30T00:40:44.482Z,1.80
2022-09-30T00:45:52.605Z,1.57
2022-09-30T00:50:56.813Z,1.60
2022-09-30T00:56:04.842Z,1.80
2022-09-30T01:01:10.108Z,1.60
2022-09-30T01:06:14.070Z,1.40
2022-09-30T01:11:18.906Z,1.30
2022-09-30T01:16:42.325Z,1.50
2022-09-30T01:22:12.340Z,1.40
2022-09-30T01:27:48.512Z,1.40
2022-09-30T01:33:11.625Z,1.23
2022-09-30T01:38:28.104Z,1.27
2022-09-30T01:43:40.768Z,1.93
2022-09-30T01:48:52.423Z,1.30
2022-09-30T01:54:01.214Z,1.23
2022-09-30T01:59:09.661Z,1.30
2022-09-30T02:04:21.021Z,0.90
2022-09-30T02:09:30.324Z,1.10
2022-09-30T02:14:38.659Z,1.10
2022-09-30T02:19:47.078Z,1.40
2022-09-30T02:24:56.233Z,1.67
2022-09-30T02:30:04.139Z,1.30
2022-09-30T02:35:14.002Z,1.90
2022-09-30T02:40:23.126Z,1.30
2022-09-30T02:45:27.288Z,1.80
2022-09-30T02:50:36.259Z,1.60
2022-09-30T02:55:51.186Z,1.30
2022-09-30T03:00:55.902Z,2.20
2022-09-30T03:06:00.927Z,1.67
2022-09-30T03:11:05.850Z,1.30
2022-09-30T03:16:20.544Z,1.27
2022-09-30T03:21:38.758Z,1.80
2022-09-30T03:26:52.050Z,1.53
2022-09-30T03:32:09.232Z,1.30
2022-09-30T03:37:27.099Z,1.40
2022-09-30T03:42:38.615Z,1.20
2022-09-30T03:47:47.785Z,1.50
2022-09-30T03:52:53.150Z,1.47
2022-09-30T03:57:57.759Z,1.63
2022-09-30T04:03:01.475Z,1.30
2022-09-30T04:08:06.389Z,1.90
2022-09-30T04:13:09.896Z,1.53
2022-09-30T04:18:13.630Z,1.47
2022-09-30T04:23:18.961Z,1.90
2022-09-30T04:28:23.243Z,2.10
2022-09-30T04:33:27.585Z,1.67
2022-09-30T04:38:33.625Z,1.80
2022-09-30T04:43:37.721Z,1.70
2022-09-30T04:48:45.929Z,1.73
2022-09-30T04:53:51.819Z,1.27
2022-09-30T04:58:55.747Z,1.20
2022-09-30T05:03:59.307Z,1.47
2022-09-30T05:09:04.764Z,1.50
2022-09-30T05:14:09.905Z,1.20
2022-09-30T05:19:13.551Z,2.17
2022-09-30T05:24:18.989Z,1.43
2022-09-30T05:29:22.524Z,1.40
2022-09-30T05:34:26.564Z,1.40
2022-09-30T05:39:31.389Z,1.57
2022-09-30T05:44:34.909Z,1.50
2022-09-30T05:49:40.195Z,1.50
2022-09-30T05:54:45.348Z,1.57
2022-09-30T05:59:48.862Z,1.60
2022-09-30T06:04:52.437Z,1.87
2022-09-30T06:09:57.376Z,1.97
2022-09-30T06:15:01.125Z,1.90
2022-09-30T06:20:05.631Z,1.80
2022-09-30T06:25:11.520Z,1.50
2022-09-30T06:30:15.418Z,2.07
2022-09-30T06:35:19.566Z,1.73
2022-09-30T06:40:25.011Z,1.53
2022-09-30T06:45:32.981Z,1.63
2022-09-30T06:50:39.235Z,1.67
2022-09-30T06:55:44.380Z,1.53
2022-09-30T07:00:48.154Z,1.90
2022-09-30T07:05:58.244Z,2.20
2022-09-30T07:11:05.526Z,2.10
2022-09-30T07:16:09.162Z,1.70
2022-09-30T07:21:13.727Z,2.10
2022-09-30T07:26:20.750Z,2.27
2022-09-30T07:31:35.325Z,2.83
2022-09-30T07:36:40.434Z,2.10
2022-09-30T07:41:45.372Z,1.80
2022-09-30T07:46:48.931Z,2.00
2022-09-30T07:51:53.955Z,1.60
2022-09-30T07:57:15.956Z,1.90
2022-09-30T08:02:20.748Z,1.47
2022-09-30T08:07:24.222Z,2.03
2022-09-30T08:12:29.218Z,1.70
2022-09-30T08:17:32.733Z,1.87
2022-09-30T08:22:36.166Z,1.70
2022-09-30T08:27:41.186Z,1.80
2022-09-30T08:32:44.794Z,1.83
2022-09-30T08:37:48.364Z,1.37
2022-09-30T08:43:10.253Z,1.13
2022-09-30T08:48:29.983Z,0.87
2022-09-30T08:53:37.670Z,1.20
2022-09-30T08:58:45.396Z,0.80
2022-09-30T09:03:49.232Z,1.00
2022-09-30T09:09:19.873Z,1.00
2022-09-30T09:14:39.288Z,0.80
2022-09-30T09:19:48.612Z,0.60
2022-09-30T09:24:54.830Z,0.73
2022-09-30T09:30:07.660Z,0.60
2022-09-30T09:35:16.471Z,0.67
2022-09-30T09:40:28.510Z,0.47
2022-09-30T09:45:39.782Z,0.60
2022-09-30T09:50:51.750Z,0.70
2022-09-30T09:55:59.385Z,0.77
2022-09-30T10:01:32.106Z,0.80
2022-09-30T10:06:44.838Z,0.50
2022-09-30T10:11:48.491Z,0.63
2022-09-30T10:17:00.757Z,0.87
2022-09-30T10:22:20.492Z,0.80
2022-09-30T10:27:31.683Z,0.70
2022-09-30T10:32:37.454Z,0.80
2022-09-30T10:37:52.307Z,0.77
2022-09-30T10:42:57.109Z,0.77
2022-09-30T10:48:07.681Z,0.60
2022-09-30T10:53:18.227Z,0.57
2022-09-30T10:58:38.475Z,0.43
2022-09-30T11:03:56.095Z,0.40
2022-09-30T11:09:07.239Z,0.70
2022-09-30T11:14:28.511Z,0.50
2022-09-30T11:19:37.348Z,0.40
2022-09-30T11:24:44.812Z,0.43
2022-09-30T11:30:02.094Z,0.40
2022-09-30T11:35:22.325Z,0.50
2022-09-30T11:40:32.330Z,0.53
2022-09-30T11:45:50.596Z,0.50
2022-09-30T11:51:04.177Z,0.40
2022-09-30T11:56:21.826Z,0.50
2022-09-30T12:01:32.732Z,0.50
2022-09-30T12:06:40.988Z,0.50
2022-09-30T12:11:51.847Z,0.60
2022-09-30T12:16:58.532Z,0.40
2022-09-30T12:22:11.903Z,0.53
2022-09-30T12:27:20.147Z,0.50
2022-09-30T12:33:13.123Z,0.50
2022-09-30T12:38:39.220Z,0.40
2022-09-30T12:44:16.923Z,0.63
2022-09-30T12:49:24.616Z,0.30
2022-09-30T12:54:35.020Z,0.37
2022-09-30T12:59:45.632Z,0.50
2022-09-30T13:04:52.078Z,0.70
2022-09-30T13:10:26.999Z,0.50
2022-09-30T13:15:44.305Z,1.63
2022-09-30T13:20:55.357Z,0.50
2022-09-30T13:26:02.075Z,0.70
2022-09-30T13:31:19.071Z,0.40
2022-09-30T13:36:30.137Z,0.50
2022-09-30T13:41:38.739Z,0.40
2022-09-30T13:46:49.945Z,0.50
2022-09-30T13:51:56.638Z,0.50
2022-09-30T13:57:03.633Z,0.50
2022-09-30T14:02:39.748Z,0.50
2022-09-30T14:07:58.054Z,0.60
2022-09-30T14:13:19.688Z,0.60
2022-09-30T14:18:44.313Z,0.47
2022-09-30T14:23:57.366Z,0.43
2022-09-30T14:29:09.356Z,0.63
2022-09-30T14:34:15.164Z,0.50
2022-09-30T14:39:22.218Z,0.73
2022-09-30T14:44:29.810Z,0.60
2022-09-30T14:49:37.592Z,0.50
2022-09-30T14:54:48.632Z,0.50
2022-09-30T14:59:53.615Z,0.50
2022-09-30T15:05:01.799Z,0.80
2022-09-30T15:10:07.582Z,0.60
2022-09-30T15:15:36.876Z,0.60
2022-09-30T15:20:42.452Z,0.70
2022-09-30T15:25:45.984Z,0.73
2022-09-30T15:30:54.259Z,0.50
2022-09-30T15:36:06.976Z,0.60
2022-09-30T15:41:12.955Z,0.50
2022-09-30T15:46:38.623Z,0.53
2022-09-30T15:51:44.372Z,0.60
2022-09-30T15:56:48.072Z,0.60
2022-09-30T16:01:58.114Z,0.70
2022-09-30T16:07:09.787Z,0.90
2022-09-30T16:12:21.275Z,0.60
2022-09-30T16:17:28.978Z,0.60
2022-09-30T16:22:49.218Z,0.80
2022-09-30T16:27:57.823Z,1.90
2022-09-30T16:33:06.058Z,1.13
2022-09-30T16:38:14.140Z,0.70
2022-09-30T16:43:17.791Z,0.50
2022-09-30T16:48:22.664Z,1.90
2022-09-30T16:53:26.173Z,1.13
2022-09-30T16:58:31.261Z,1.23
2022-09-30T17:03:35.986Z,1.67
2022-09-30T17:08:39.333Z,1.70
2022-09-30T17:13:43.225Z,1.67
2022-09-30T17:18:48.267Z,2.30
2022-09-30T17:23:52.384Z,2.20
2022-09-30T17:29:08.789Z,18.80
2022-09-30T17:34:19.780Z,6.37
2022-09-30T17:39:33.210Z,3.70
2022-09-30T17:44:39.147Z,3.30
2022-09-30T17:49:45.360Z,4.37
2022-09-30T17:54:58.256Z,4.20
2022-09-30T18:00:05.198Z,4.50
2022-09-30T18:05:14.540Z,6.00
2022-09-30T18:10:18.343Z,5.60
2022-09-30T18:15:27.119Z,5.57
2022-09-30T18:20:44.890Z,10.00
2022-09-30T18:25:52.229Z,6.80
2022-09-30T18:30:55.755Z,6.53
2022-09-30T18:36:03.232Z,3.80
2022-09-30T18:41:07.467Z,3.10
2022-09-30T18:46:10.887Z,5.07
2022-09-30T18:51:18.893Z,5.53
2022-09-30T18:56:24.151Z,4.43
2022-09-30T19:01:27.946Z,3.47
2022-09-30T19:06:33.158Z,3.50
2022-09-30T19:11:37.444Z,5.57
2022-09-30T19:16:44.037Z,6.23
2022-09-30T19:21:49.795Z,4.60
2022-09-30T19:26:53.223Z,4.50
2022-09-30T19:31:58.518Z,3.73
2022-09-30T19:37:03.694Z,5.20
2022-09-30T19:42:09.357Z,5.50
2022-09-30T19:47:12.948Z,4.43
2022-09-30T19:52:22.122Z,3.00
2022-09-30T19:57:27.976Z,3.50
2022-09-30T20:02:31.675Z,5.83
2022-09-30T20:07:39.411Z,4.77
2022-09-30T20:12:44.665Z,4.67
2022-09-30T20:17:50.364Z,4.67
2022-09-30T20:22:55.645Z,5.17
2022-09-30T20:27:59.537Z,4.17
2022-09-30T20:33:04.490Z,4.10
2022-09-30T20:38:13.763Z,5.20
2022-09-30T20:43:17.681Z,6.20
2022-09-30T20:48:21.391Z,5.73
2022-09-30T20:53:26.690Z,8.27
2022-09-30T20:58:30.133Z,5.83
2022-09-30T21:03:36.122Z,9.20
2022-09-30T21:08:43.087Z,6.70
2022-09-30T21:13:50.535Z,7.10
2022-09-30T21:18:55.716Z,6.80
2022-09-30T21:24:02.328Z,6.13
2022-09-30T21:29:06.224Z,7.43
2022-09-30T21:34:13.813Z,5.60
2022-09-30T21:39:18.599Z,6.17
2022-09-30T21:44:23.360Z,4.60
2022-09-30T21:49:26.680Z,5.20
2022-09-30T21:54:31.390Z,4.20
2022-09-30T21:59:46.318Z,4.00
2022-09-30T22:04:52.046Z,3.93
2022-09-30T22:09:56.968Z,4.53
2022-09-30T22:15:00.333Z,4.00
2022-09-30T22:20:03.863Z,4.53
2022-09-30T22:25:10.338Z,4.93
2022-09-30T22:30:14.027Z,4.50
2022-09-30T22:35:35.044Z,4.60
2022-09-30T22:40:39.957Z,3.67
2022-09-30T22:45:43.988Z,5.30
2022-09-30T22:50:48.092Z,4.57
2022-09-30T22:55:53.146Z,4.20
2022-09-30T23:00:58.736Z,4.70
2022-09-30T23:06:03.299Z,3.70
2022-09-30T23:11:09.754Z,4.07
2022-09-30T23:16:16.664Z,4.30
2022-09-30T23:21:21.657Z,3.77
2022-09-30T23:26:28.439Z,3.43
2022-09-30T23:31:32.506Z,3.83
2022-09-30T23:36:38.060Z,2.70
2022-09-30T23:41:46.338Z,3.03
2022-09-30T23:47:09.814Z,3.20
2022-09-30T23:52:14.131Z,2.67
2022-09-30T23:57:18.823Z,2.87
